KWYS Airport Information

Runway Information
Runway 01 Length 8399 ft width 150 ft
Elevation 6644 ft Threshold 0 ft Heading 26
Runway 19 Length 8399 ft Width 150 ft
Elevation 6629 ft Threshold 0 ft Heading 206
Airport Frequencies
Type CNTR Name SALT LAKE Frequency 132.4 MHZ
Type RDO Name GREAT FALL Frequency 119.4 MHZ
Type UNIC Name CTAF/UNICO Frequency 123 MHZ
Airport Navaids
Type NDB Name Targy Frequency 415 KHZ
Airport Weather Information & NOTAM
ADDS - METARS form results

(2120 UTC 21 July 2018)
 
METAR text: KWYS 212105Z AUTO 21022G28KT 10SM CLR 26/07 A3022 RMK AO2
Conditions at: KWYS (WEST YELLOWSTONE, MT, US) observed 2105 UTC 21 July 2018
Temperature: 26.0°C (79°F)
Dewpoint: 7.0°C (45°F) [RH = 30%]
Pressure (altimeter): 30.22 inches Hg (1023.5 mb)
Winds: from the SSW (210 degrees) at 25 MPH (22 knots; 11.4 m/s)
gusting to 32 MPH (28 knots; 14.6 m/s)
Visibility: 10 or more miles (16+ km)
Ceiling: at least 12,000 feet AGL
Clouds: sky clear below 12,000 feet AGL
Weather: automated observation with no human augmentation;
there may or may not be significant weather present at this time

METAR text: KWYS 212050Z AUTO 21019G27KT 10SM CLR 26/07 A3021 RMK AO2
Conditions at: KWYS (WEST YELLOWSTONE, MT, US) observed 2050 UTC 21 July 2018
Temperature: 26.0°C (79°F)
Dewpoint: 7.0°C (45°F) [RH = 30%]
Pressure (altimeter): 30.21 inches Hg (1023.1 mb)
Winds: from the SSW (210 degrees) at 22 MPH (19 knots; 9.9 m/s)
gusting to 31 MPH (27 knots; 14.0 m/s)
Visibility: 10 or more miles (16+ km)
Ceiling: at least 12,000 feet AGL
Clouds: sky clear below 12,000 feet AGL
Weather: automated observation with no human augmentation;
there may or may not be significant weather present at this time

METAR text: KWYS 212030Z AUTO 22018G26KT 10SM CLR 26/07 A3021 RMK AO2
Conditions at: KWYS (WEST YELLOWSTONE, MT, US) observed 2030 UTC 21 July 2018
Temperature: 26.0°C (79°F)
Dewpoint: 7.0°C (45°F) [RH = 30%]
Pressure (altimeter): 30.21 inches Hg (1023.1 mb)
Winds: from the SW (220 degrees) at 21 MPH (18 knots; 9.4 m/s)
gusting to 30 MPH (26 knots; 13.5 m/s)
Visibility: 10 or more miles (16+ km)
Ceiling: at least 12,000 feet AGL
Clouds: sky clear below 12,000 feet AGL
Weather: automated observation with no human augmentation;
there may or may not be significant weather present at this time